createdAt,value
2022-12-13T00:00:14.952Z,13.03
2022-12-13T00:02:44.120Z,11.17
2022-12-13T00:05:13.857Z,12.87
2022-12-13T00:07:44.105Z,14.07
2022-12-13T00:10:14.579Z,12.83
2022-12-13T00:12:43.600Z,10.30
2022-12-13T00:15:13.507Z,12.17
2022-12-13T00:17:43.301Z,11.03
2022-12-13T00:20:13.974Z,11.40
2022-12-13T00:22:42.919Z,13.07
2022-12-13T00:25:13.760Z,11.40
2022-12-13T00:27:42.946Z,10.63
2022-12-13T00:30:12.610Z,10.60
2022-12-13T00:32:41.548Z,10.10
2022-12-13T00:35:10.933Z,10.50
2022-12-13T00:37:39.880Z,13.00
2022-12-13T00:40:10.025Z,10.13
2022-12-13T00:42:40.417Z,11.20
2022-12-13T00:45:10.965Z,10.97
2022-12-13T00:47:39.940Z,9.27
2022-12-13T00:50:09.512Z,9.90
2022-12-13T00:52:38.590Z,11.53
2022-12-13T00:55:08.560Z,9.00
2022-12-13T00:57:37.531Z,10.37
2022-12-13T01:00:09.557Z,9.67
2022-12-13T01:02:38.514Z,10.47
2022-12-13T01:05:07.964Z,11.83
2022-12-13T01:07:37.675Z,11.43
2022-12-13T01:10:08.605Z,9.87
2022-12-13T01:12:38.128Z,10.23
2022-12-13T01:15:10.100Z,10.77
2022-12-13T01:17:39.115Z,10.20
2022-12-13T01:20:09.652Z,8.83
2022-12-13T01:22:38.685Z,9.90
2022-12-13T01:25:08.166Z,8.37
2022-12-13T01:27:37.119Z,8.93
2022-12-13T01:30:08.656Z,19.07
2022-12-13T01:32:38.292Z,10.23
2022-12-13T01:35:07.878Z,8.43
2022-12-13T01:37:37.686Z,9.77
2022-12-13T01:40:15.830Z,9.43
2022-12-13T01:42:45.955Z,10.27
2022-12-13T01:45:25.642Z,10.60
2022-12-13T01:47:58.190Z,10.33
2022-12-13T01:50:32.180Z,10.53
2022-12-13T01:53:02.442Z,9.63
2022-12-13T01:55:41.679Z,11.77
2022-12-13T01:58:12.239Z,10.77
2022-12-13T02:00:44.106Z,9.83
2022-12-13T02:03:21.640Z,11.63
2022-12-13T02:05:56.600Z,9.47
2022-12-13T02:08:30.481Z,9.63
2022-12-13T02:11:05.963Z,10.47
2022-12-13T02:13:37.420Z,11.13
2022-12-13T02:16:14.318Z,10.33
2022-12-13T02:19:05.881Z,9.73
2022-12-13T02:21:45.101Z,10.47
2022-12-13T02:24:43.404Z,10.27
2022-12-13T02:27:30.351Z,11.03
2022-12-13T02:30:27.375Z,11.47
2022-12-13T02:33:31.002Z,9.57
2022-12-13T02:36:10.449Z,9.53
2022-12-13T02:38:50.060Z,9.70
2022-12-13T02:41:24.841Z,10.47
2022-12-13T02:44:01.261Z,9.47
2022-12-13T02:46:37.617Z,9.10
2022-12-13T02:49:08.485Z,8.90
2022-12-13T02:51:40.856Z,10.63
2022-12-13T02:54:10.121Z,10.60
2022-12-13T02:56:39.103Z,11.47
2022-12-13T02:59:14.420Z,9.43
2022-12-13T03:02:09.534Z,14.17
2022-12-13T03:05:06.856Z,9.13
2022-12-13T03:07:40.567Z,9.40
2022-12-13T03:10:17.071Z,9.50
2022-12-13T03:13:11.373Z,11.07
2022-12-13T03:15:44.305Z,13.83
2022-12-13T03:18:19.159Z,10.90
2022-12-13T03:20:50.050Z,12.00
2022-12-13T03:23:20.157Z,11.33
2022-12-13T03:25:52.244Z,10.70
2022-12-13T03:28:21.780Z,10.90
2022-12-13T03:30:50.859Z,12.00
2022-12-13T03:33:22.339Z,10.97
2022-12-13T03:35:51.588Z,10.83
2022-12-13T03:38:22.041Z,11.73
2022-12-13T03:40:54.821Z,11.03
2022-12-13T03:43:24.070Z,10.87
2022-12-13T03:45:53.602Z,11.23
2022-12-13T03:48:24.630Z,13.23
2022-12-13T03:50:55.504Z,12.93
2022-12-13T03:53:33.813Z,11.37
2022-12-13T03:56:05.567Z,12.47
2022-12-13T03:58:37.970Z,12.67
2022-12-13T04:01:11.707Z,12.53
2022-12-13T04:03:44.294Z,14.27
2022-12-13T04:06:22.147Z,12.63
2022-12-13T04:08:52.335Z,12.50
2022-12-13T04:11:42.653Z,15.13
2022-12-13T04:14:22.839Z,14.63
2022-12-13T04:16:52.889Z,18.43
2022-12-13T04:19:24.211Z,14.37
2022-12-13T04:21:54.581Z,13.40
2022-12-13T04:24:31.360Z,15.07
2022-12-13T04:27:01.734Z,14.93
2022-12-13T04:29:34.225Z,15.87
2022-12-13T04:32:05.225Z,15.80
2022-12-13T04:35:01.057Z,14.80
2022-12-13T04:37:30.766Z,14.93
2022-12-13T04:40:00.795Z,15.87
2022-12-13T04:42:30.444Z,13.93
2022-12-13T04:44:59.453Z,14.43
2022-12-13T04:47:28.824Z,14.67
2022-12-13T04:49:59.483Z,13.87
2022-12-13T04:52:29.105Z,15.77
2022-12-13T04:54:58.104Z,15.63
2022-12-13T04:57:27.082Z,15.27
2022-12-13T04:59:56.201Z,15.83
2022-12-13T05:02:25.756Z,14.83
2022-12-13T05:04:54.754Z,20.30
2022-12-13T05:07:28.108Z,16.60
2022-12-13T05:09:57.081Z,16.23
2022-12-13T05:12:26.091Z,14.73
2022-12-13T05:14:55.388Z,14.37
2022-12-13T05:17:24.644Z,14.30
2022-12-13T05:19:53.631Z,15.77
2022-12-13T05:22:22.645Z,14.20
2022-12-13T05:24:53.101Z,14.77
2022-12-13T05:27:25.250Z,14.97
2022-12-13T05:30:03.114Z,15.87
2022-12-13T05:32:44.311Z,14.57
2022-12-13T05:35:21.655Z,15.03
2022-12-13T05:37:53.483Z,13.60
2022-12-13T05:40:25.731Z,14.37
2022-12-13T05:43:01.397Z,14.27
2022-12-13T05:45:31.322Z,14.70
2022-12-13T05:48:00.525Z,13.90
2022-12-13T05:50:29.555Z,12.77
2022-12-13T05:52:58.661Z,13.37
2022-12-13T05:55:29.179Z,14.73
2022-12-13T05:58:02.419Z,14.13
2022-12-13T06:00:31.810Z,14.27
2022-12-13T06:03:02.017Z,13.87
2022-12-13T06:05:31.539Z,13.50
2022-12-13T06:08:00.818Z,13.67
2022-12-13T06:10:35.079Z,13.20
2022-12-13T06:13:21.417Z,13.17
2022-12-13T06:16:01.268Z,12.17
2022-12-13T06:18:33.273Z,13.00
2022-12-13T06:21:04.337Z,11.37
2022-12-13T06:23:34.142Z,12.30
2022-12-13T06:26:06.754Z,14.83
2022-12-13T06:28:35.844Z,15.23
2022-12-13T06:31:06.132Z,10.73
2022-12-13T06:33:36.930Z,11.57
2022-12-13T06:36:06.881Z,11.93
2022-12-13T06:38:43.106Z,13.23
2022-12-13T06:41:16.184Z,12.67
2022-12-13T06:43:45.842Z,11.77
2022-12-13T06:46:15.708Z,11.33
2022-12-13T06:48:45.274Z,13.33
2022-12-13T06:51:23.045Z,11.30
2022-12-13T06:54:02.543Z,14.00
2022-12-13T06:56:33.476Z,11.03
2022-12-13T06:59:02.538Z,10.63
2022-12-13T07:01:36.804Z,11.73
2022-12-13T07:04:30.110Z,11.60
2022-12-13T07:06:55.998Z,11.57
2022-12-13T07:09:31.704Z,11.20
2022-12-13T07:12:02.384Z,10.97
2022-12-13T07:14:40.837Z,9.40
2022-12-13T07:17:11.134Z,9.87
2022-12-13T07:19:40.524Z,9.13
2022-12-13T07:22:09.542Z,12.07
2022-12-13T07:24:38.698Z,11.30
2022-12-13T07:27:09.150Z,11.47
2022-12-13T07:29:38.725Z,9.23
2022-12-13T07:32:07.802Z,9.50
2022-12-13T07:34:37.445Z,9.03
2022-12-13T07:37:06.553Z,8.90
2022-12-13T07:39:35.614Z,9.90
2022-12-13T07:42:04.658Z,10.17
2022-12-13T07:44:36.006Z,8.37
2022-12-13T07:47:05.264Z,10.60
2022-12-13T07:49:34.395Z,9.63
2022-12-13T07:52:03.459Z,14.37
2022-12-13T07:54:32.464Z,11.40
2022-12-13T07:57:04.515Z,9.27
2022-12-13T07:59:35.529Z,11.97
2022-12-13T08:02:04.912Z,11.10
2022-12-13T08:04:37.942Z,9.23
2022-12-13T08:07:09.287Z,9.90
2022-12-13T08:09:39.150Z,9.77
2022-12-13T08:12:08.875Z,12.63
2022-12-13T08:14:41.311Z,10.00
2022-12-13T08:17:10.431Z,10.67
2022-12-13T08:19:39.480Z,9.60
2022-12-13T08:22:14.317Z,10.73
2022-12-13T08:24:43.498Z,10.70
2022-12-13T08:27:12.577Z,9.50
2022-12-13T08:29:43.090Z,11.23
2022-12-13T08:32:14.314Z,11.57
2022-12-13T08:34:45.821Z,10.30
2022-12-13T08:37:15.549Z,11.07
2022-12-13T08:39:45.162Z,10.00
2022-12-13T08:42:18.868Z,10.80
2022-12-13T08:44:52.350Z,9.87
2022-12-13T08:47:25.539Z,12.20
2022-12-13T08:50:02.196Z,13.17
2022-12-13T08:52:40.170Z,11.53
2022-12-13T08:55:11.173Z,12.27
2022-12-13T08:57:41.355Z,10.50
2022-12-13T09:00:14.423Z,10.23
2022-12-13T09:02:43.907Z,10.73
2022-12-13T09:05:33.891Z,10.37
2022-12-13T09:08:24.867Z,11.27
2022-12-13T09:10:59.216Z,13.33
2022-12-13T09:13:32.025Z,10.03
2022-12-13T09:16:06.051Z,10.17
2022-12-13T09:18:44.020Z,10.23
2022-12-13T09:21:22.491Z,15.83
2022-12-13T09:24:02.309Z,9.50
2022-12-13T09:26:38.202Z,10.37
2022-12-13T09:29:11.142Z,10.43
2022-12-13T09:31:42.501Z,9.43
2022-12-13T09:34:12.348Z,10.67
2022-12-13T09:36:42.451Z,9.60
2022-12-13T09:39:13.450Z,10.93
2022-12-13T09:41:45.518Z,9.60
2022-12-13T09:44:30.602Z,10.40
2022-12-13T09:47:13.630Z,10.40
2022-12-13T09:49:51.762Z,11.90
2022-12-13T09:52:25.056Z,9.53
2022-12-13T09:54:57.240Z,10.30
2022-12-13T09:57:31.872Z,9.83
2022-12-13T10:00:06.409Z,9.40
2022-12-13T10:02:46.644Z,9.33
2022-12-13T10:05:34.109Z,10.23
2022-12-13T10:08:09.861Z,8.77
2022-12-13T10:10:39.422Z,9.40
2022-12-13T10:13:18.952Z,9.90
2022-12-13T10:15:52.471Z,9.33
2022-12-13T10:18:32.835Z,9.13
2022-12-13T10:21:05.119Z,8.87
2022-12-13T10:23:53.014Z,11.53
2022-12-13T10:26:25.182Z,12.70
2022-12-13T10:29:04.635Z,9.57
2022-12-13T10:31:42.256Z,12.57
2022-12-13T10:34:24.016Z,11.33
2022-12-13T10:36:53.760Z,8.80
2022-12-13T10:39:41.465Z,10.17
2022-12-13T10:42:22.740Z,9.27
2022-12-13T10:45:12.092Z,10.37
2022-12-13T10:47:45.724Z,11.17
2022-12-13T10:50:26.662Z,10.70
2022-12-13T10:52:57.621Z,11.70
2022-12-13T10:55:30.538Z,10.30
2022-12-13T10:58:02.066Z,11.93
2022-12-13T11:00:41.708Z,12.97
2022-12-13T11:03:14.670Z,12.73
2022-12-13T11:05:47.071Z,10.03
2022-12-13T11:08:22.262Z,12.70
2022-12-13T11:10:59.995Z,9.93
2022-12-13T11:13:37.087Z,10.73
2022-12-13T11:16:18.456Z,11.53
2022-12-13T11:18:53.930Z,12.53
2022-12-13T11:21:29.314Z,11.90
2022-12-13T11:24:01.908Z,11.57
2022-12-13T11:26:33.544Z,11.70
2022-12-13T11:29:24.191Z,12.90
2022-12-13T11:32:01.995Z,9.50
2022-12-13T11:34:42.273Z,14.13
2022-12-13T11:37:24.111Z,15.27
2022-12-13T11:40:01.216Z,11.90
2022-12-13T11:42:35.581Z,10.83
2022-12-13T11:45:23.113Z,10.47
2022-12-13T11:48:00.616Z,12.20
2022-12-13T11:50:34.328Z,12.03
2022-12-13T11:53:23.091Z,9.87
2022-12-13T11:55:59.199Z,10.57
2022-12-13T12:01:31.087Z,9.93
2022-12-13T12:04:07.103Z,10.57
2022-12-13T12:06:44.389Z,11.60
2022-12-13T12:09:17.138Z,10.57
2022-12-13T12:11:53.606Z,13.27
2022-12-13T12:14:28.690Z,12.83
2022-12-13T12:16:59.953Z,11.90
2022-12-13T12:19:36.890Z,15.43
2022-12-13T12:22:17.546Z,13.17
2022-12-13T12:25:12.544Z,13.93
2022-12-13T12:27:49.639Z,13.30
2022-12-13T12:30:23.747Z,14.00
2022-12-13T12:32:59.069Z,11.07
2022-12-13T12:36:04.838Z,11.97
2022-12-13T12:38:56.262Z,11.20
2022-12-13T12:41:45.318Z,12.00
2022-12-13T12:44:31.106Z,13.53
2022-12-13T12:47:38.264Z,13.23
2022-12-13T12:50:23.883Z,12.03
2022-12-13T12:53:02.484Z,15.27
2022-12-13T12:55:49.461Z,11.20
2022-12-13T12:58:31.220Z,12.10
2022-12-13T13:01:17.868Z,12.00
2022-12-13T13:03:47.938Z,14.00
2022-12-13T13:06:22.076Z,14.13
2022-12-13T13:08:56.990Z,11.03
2022-12-13T13:11:27.162Z,11.73
2022-12-13T13:14:08.380Z,13.57
2022-12-13T13:16:40.357Z,12.27
2022-12-13T13:19:40.712Z,11.23
2022-12-13T13:22:31.111Z,12.23
2022-12-13T13:25:21.874Z,13.33
2022-12-13T13:27:53.012Z,11.23
2022-12-13T13:30:25.594Z,12.07
2022-12-13T13:32:56.846Z,11.67
2022-12-13T13:35:54.774Z,11.50
2022-12-13T13:38:55.090Z,12.53
2022-12-13T13:41:56.721Z,12.43
2022-12-13T13:44:54.327Z,14.93
2022-12-13T13:47:53.838Z,12.60
2022-12-13T13:51:14.178Z,13.90
2022-12-13T13:54:03.740Z,12.80
2022-12-13T13:57:16.480Z,13.50
2022-12-13T14:00:22.649Z,12.20
2022-12-13T14:03:34.083Z,13.63
2022-12-13T14:06:53.512Z,13.97
2022-12-13T14:09:51.961Z,19.77
2022-12-13T14:13:01.281Z,13.10
2022-12-13T14:16:03.404Z,16.10
2022-12-13T14:19:11.261Z,13.03
2022-12-13T14:22:02.629Z,12.77
2022-12-13T14:24:41.456Z,16.30
2022-12-13T14:27:22.310Z,13.93
2022-12-13T14:29:58.247Z,14.67
2022-12-13T14:32:30.596Z,16.57
2022-12-13T14:35:24.722Z,13.27
2022-12-13T14:38:02.101Z,12.23
2022-12-13T14:40:33.814Z,14.17
2022-12-13T14:43:03.731Z,13.67
2022-12-13T14:45:36.904Z,15.40
2022-12-13T14:48:10.175Z,14.73
2022-12-13T14:50:41.620Z,12.60
2022-12-13T14:53:26.894Z,15.33
2022-12-13T14:56:08.213Z,15.70
2022-12-13T14:58:37.914Z,13.70
2022-12-13T15:01:08.777Z,16.93
2022-12-13T15:03:38.233Z,15.17
2022-12-13T15:06:08.289Z,14.07
2022-12-13T15:08:39.525Z,17.33
2022-12-13T15:11:11.411Z,16.47
2022-12-13T15:13:42.617Z,15.93
2022-12-13T15:16:20.015Z,16.00
2022-12-13T15:19:10.842Z,15.20
2022-12-13T15:21:43.110Z,17.27
2022-12-13T15:24:15.153Z,14.40
2022-12-13T15:26:48.654Z,15.40
2022-12-13T15:29:22.576Z,13.97
2022-12-13T15:31:51.716Z,15.07
2022-12-13T15:34:35.700Z,17.70
2022-12-13T15:37:06.993Z,16.63
2022-12-13T15:39:48.121Z,14.10
2022-12-13T15:42:23.434Z,13.97
2022-12-13T15:44:55.773Z,14.20
2022-12-13T15:47:28.084Z,16.60
2022-12-13T15:49:59.940Z,17.30
2022-12-13T15:52:36.098Z,19.43
2022-12-13T15:58:00.090Z,17.27
2022-12-13T16:00:31.797Z,21.33
2022-12-13T16:03:09.231Z,21.03
2022-12-13T16:05:41.833Z,20.47
2022-12-13T16:08:26.550Z,18.77
2022-12-13T16:10:56.527Z,23.33
2022-12-13T16:13:30.035Z,20.40
2022-12-13T16:16:08.821Z,18.93
2022-12-13T16:18:47.468Z,19.07
2022-12-13T16:21:16.578Z,20.00
2022-12-13T16:23:48.499Z,18.67
2022-12-13T16:26:25.824Z,19.83
2022-12-13T16:28:58.905Z,20.63
2022-12-13T16:31:35.808Z,20.20
2022-12-13T16:34:05.510Z,19.27
2022-12-13T16:36:34.755Z,20.03
2022-12-13T16:39:04.054Z,17.33
2022-12-13T16:41:36.817Z,18.13
2022-12-13T16:44:10.986Z,19.67
2022-12-13T16:47:12.088Z,18.33
2022-12-13T16:49:32.297Z,16.93
2022-12-13T16:52:03.282Z,19.23
2022-12-13T16:54:32.842Z,19.47
2022-12-13T16:57:04.318Z,18.97
2022-12-13T16:59:35.450Z,16.00
2022-12-13T17:02:06.689Z,19.20
2022-12-13T17:04:42.407Z,18.30
2022-12-13T17:07:12.817Z,19.33
2022-12-13T17:09:43.278Z,18.13
2022-12-13T17:12:15.290Z,17.13
2022-12-13T17:14:46.558Z,17.13
2022-12-13T17:17:17.693Z,19.33
2022-12-13T17:19:49.920Z,17.43
2022-12-13T17:22:21.449Z,17.73
2022-12-13T17:24:51.591Z,16.23
2022-12-13T17:27:23.115Z,17.53
2022-12-13T17:29:57.901Z,15.63
2022-12-13T17:32:27.910Z,15.47
2022-12-13T17:35:05.799Z,18.37
2022-12-13T17:37:36.230Z,17.10
2022-12-13T17:40:07.254Z,16.23
2022-12-13T17:42:36.629Z,17.87
2022-12-13T17:45:08.875Z,18.90
2022-12-13T17:47:40.071Z,21.37
2022-12-13T17:50:11.516Z,21.27
2022-12-13T17:52:42.140Z,23.00
2022-12-13T17:55:17.949Z,23.07
2022-12-13T17:57:48.001Z,20.70
2022-12-13T18:00:19.737Z,24.27
2022-12-13T18:02:55.377Z,25.13
2022-12-13T18:05:26.701Z,24.50
2022-12-13T18:07:57.336Z,28.03
2022-12-13T18:10:30.099Z,21.97
2022-12-13T18:13:01.589Z,25.13
2022-12-13T18:15:37.421Z,22.53
2022-12-13T18:18:11.654Z,22.13
2022-12-13T18:20:42.268Z,25.70
2022-12-13T18:23:12.996Z,26.07
2022-12-13T18:25:43.919Z,27.00
2022-12-13T18:28:14.131Z,25.27
2022-12-13T18:30:46.081Z,22.27
2022-12-13T18:33:18.010Z,25.33
2022-12-13T18:35:47.720Z,27.70
2022-12-13T18:38:18.071Z,25.13
2022-12-13T18:40:48.629Z,22.17
2022-12-13T18:43:18.598Z,24.63
2022-12-13T18:45:50.027Z,26.60
2022-12-13T18:48:24.968Z,26.93
2022-12-13T18:50:55.719Z,29.07
2022-12-13T18:53:27.181Z,27.93
2022-12-13T18:56:03.422Z,27.93
2022-12-13T18:58:34.522Z,27.53
2022-12-13T19:01:07.345Z,24.73
2022-12-13T19:03:39.464Z,24.03
2022-12-13T19:06:10.376Z,27.93
2022-12-13T19:08:44.555Z,29.00
2022-12-13T19:11:17.114Z,29.30
2022-12-13T19:13:52.369Z,26.63
2022-12-13T19:16:27.456Z,27.60
2022-12-13T19:19:00.112Z,29.83
2022-12-13T19:21:33.019Z,28.37
2022-12-13T19:24:05.283Z,26.43
2022-12-13T19:26:38.968Z,28.60
2022-12-13T19:29:12.758Z,32.00
2022-12-13T19:31:45.041Z,27.87
2022-12-13T19:34:18.134Z,29.37
2022-12-13T19:36:48.994Z,27.10
2022-12-13T19:39:21.320Z,29.03
2022-12-13T19:41:52.840Z,28.33
2022-12-13T19:44:26.294Z,32.27
2022-12-13T19:47:00.803Z,29.03
2022-12-13T19:49:32.854Z,29.13
2022-12-13T19:52:04.628Z,28.63
2022-12-13T19:54:37.734Z,28.17
2022-12-13T19:57:12.150Z,25.57
2022-12-13T19:59:46.060Z,27.30
2022-12-13T20:02:19.312Z,26.13
2022-12-13T20:04:52.470Z,27.13
2022-12-13T20:07:28.418Z,28.87
2022-12-13T20:10:01.761Z,26.03
2022-12-13T20:12:38.862Z,31.70
2022-12-13T20:15:13.595Z,25.70
2022-12-13T20:17:47.391Z,27.83
2022-12-13T20:20:18.059Z,27.90
2022-12-13T20:22:49.114Z,30.80
2022-12-13T20:25:20.539Z,32.17
2022-12-13T20:27:52.100Z,33.33
2022-12-13T20:30:27.455Z,27.50
2022-12-13T20:33:00.097Z,30.30
2022-12-13T20:35:31.445Z,31.07
2022-12-13T20:38:05.040Z,34.17
2022-12-13T20:40:40.132Z,32.80
2022-12-13T20:43:20.324Z,34.27
2022-12-13T20:45:51.026Z,33.70
2022-12-13T20:48:24.998Z,33.10
2022-12-13T20:51:11.404Z,35.23
2022-12-13T20:53:44.795Z,32.77
2022-12-13T20:56:17.893Z,36.53
2022-12-13T20:58:49.082Z,38.63
2022-12-13T21:01:22.084Z,34.40
2022-12-13T21:03:56.055Z,34.47
2022-12-13T21:06:25.878Z,32.07
2022-12-13T21:08:57.377Z,32.77
2022-12-13T21:11:29.057Z,35.00
2022-12-13T21:14:07.129Z,37.50
2022-12-13T21:16:43.173Z,36.57
2022-12-13T21:19:15.678Z,32.47
2022-12-13T21:21:45.179Z,33.50
2022-12-13T21:24:16.459Z,35.37
2022-12-13T21:26:46.162Z,32.80
2022-12-13T21:29:17.460Z,31.30
2022-12-13T21:31:50.206Z,35.80
2022-12-13T21:34:22.009Z,36.73
2022-12-13T21:36:53.414Z,36.27
2022-12-13T21:39:24.415Z,34.63
2022-12-13T21:41:54.781Z,36.27
2022-12-13T21:44:24.049Z,36.33
2022-12-13T21:49:48.750Z,34.47
2022-12-13T21:52:18.706Z,38.20
2022-12-13T21:54:47.775Z,36.00
2022-12-13T21:57:34.178Z,36.80
2022-12-13T22:00:03.258Z,38.37
2022-12-13T22:02:41.914Z,35.87
2022-12-13T22:05:12.687Z,37.13
2022-12-13T22:07:41.666Z,38.20
2022-12-13T22:10:11.120Z,36.13
2022-12-13T22:12:42.178Z,35.97
2022-12-13T22:15:13.723Z,37.97
2022-12-13T22:17:43.978Z,35.37
2022-12-13T22:20:16.154Z,37.70
2022-12-13T22:22:47.218Z,36.67
2022-12-13T22:25:16.398Z,39.57
2022-12-13T22:27:46.423Z,38.30
2022-12-13T22:30:15.635Z,35.93
2022-12-13T22:32:44.779Z,40.60
2022-12-13T22:35:15.397Z,37.37
2022-12-13T22:37:44.428Z,40.87
2022-12-13T22:40:18.078Z,40.77
2022-12-13T22:42:48.503Z,40.17
2022-12-13T22:45:17.862Z,39.23
2022-12-13T22:47:46.935Z,45.77
2022-12-13T22:50:17.537Z,39.80
2022-12-13T22:52:48.400Z,43.63
2022-12-13T22:55:17.673Z,38.67
2022-12-13T22:57:48.524Z,39.20
2022-12-13T23:00:18.259Z,44.70
2022-12-13T23:02:47.496Z,41.93
2022-12-13T23:05:18.102Z,40.67
2022-12-13T23:07:48.694Z,40.33
2022-12-13T23:10:35.148Z,37.67
2022-12-13T23:13:04.122Z,43.40
2022-12-13T23:15:37.940Z,43.07
2022-12-13T23:18:07.083Z,38.53
2022-12-13T23:20:37.537Z,41.50
2022-12-13T23:23:07.458Z,40.97
2022-12-13T23:25:36.492Z,40.57
2022-12-13T23:28:05.678Z,42.27
2022-12-13T23:30:34.701Z,44.80
2022-12-13T23:33:03.724Z,45.00
2022-12-13T23:35:33.175Z,43.57
2022-12-13T23:38:03.609Z,43.00
2022-12-13T23:40:32.670Z,42.70
2022-12-13T23:43:01.672Z,45.57
2022-12-13T23:45:30.680Z,39.63
2022-12-13T23:47:59.731Z,42.83
2022-12-13T23:50:28.763Z,44.20
2022-12-13T23:52:57.832Z,43.03
2022-12-13T23:55:28.243Z,40.83
2022-12-13T23:57:57.303Z,43.13
